createdAt,value
2022-12-15T00:00:18.062Z,92.20
2022-12-15T00:03:03.601Z,92.30
2022-12-15T00:05:50.212Z,92.10
2022-12-15T00:08:35.859Z,91.60
2022-12-15T00:11:21.979Z,91.60
2022-12-15T00:14:07.747Z,91.50
2022-12-15T00:16:53.646Z,92.30
2022-12-15T00:19:39.229Z,92.20
2022-12-15T00:22:25.179Z,91.40
2022-12-15T00:25:10.420Z,91.90
2022-12-15T00:27:55.929Z,91.90
2022-12-15T00:30:41.375Z,91.80
2022-12-15T00:33:30.714Z,91.40
2022-12-15T00:36:19.146Z,91.80
2022-12-15T00:38:46.536Z,92.20
2022-12-15T00:41:15.924Z,91.50
2022-12-15T00:43:43.139Z,91.60
2022-12-15T00:46:28.991Z,91.80
2022-12-15T00:48:56.177Z,91.90
2022-12-15T00:51:42.322Z,91.20
2022-12-15T00:54:28.148Z,90.90
2022-12-15T00:57:13.385Z,91.70
2022-12-15T00:59:58.844Z,92.50
2022-12-15T01:02:44.613Z,93.40
2022-12-15T01:05:29.964Z,92.70
2022-12-15T01:08:18.243Z,92.50
2022-12-15T01:11:03.741Z,92.80
2022-12-15T01:13:51.409Z,92.50
2022-12-15T01:16:37.025Z,92.50
2022-12-15T01:19:22.577Z,92.20
2022-12-15T01:21:49.783Z,92.20
2022-12-15T01:24:18.928Z,92.10
2022-12-15T01:26:45.604Z,91.70
2022-12-15T01:29:12.620Z,91.20
2022-12-15T01:31:39.379Z,91.40
2022-12-15T01:34:06.130Z,91.70
2022-12-15T01:36:32.869Z,92.20
2022-12-15T01:38:59.551Z,92.40
2022-12-15T01:41:26.327Z,92.00
2022-12-15T01:43:53.067Z,91.80
2022-12-15T01:46:21.937Z,92.30
2022-12-15T01:49:08.655Z,92.30
2022-12-15T01:51:42.426Z,91.90
2022-12-15T01:54:26.896Z,91.60
2022-12-15T01:56:58.819Z,92.00
2022-12-15T01:59:32.782Z,92.80
2022-12-15T02:01:59.709Z,92.20
2022-12-15T02:04:26.813Z,91.40
2022-12-15T02:06:53.592Z,91.60
2022-12-15T02:09:23.564Z,91.20
2022-12-15T02:12:08.761Z,90.80
2022-12-15T02:14:50.442Z,91.60
2022-12-15T02:17:44.457Z,91.70
2022-12-15T02:20:40.175Z,91.80
2022-12-15T02:23:14.985Z,91.70
2022-12-15T02:26:10.308Z,91.90
2022-12-15T02:29:00.257Z,91.70
2022-12-15T02:31:50.187Z,91.30
2022-12-15T02:34:41.421Z,91.60
2022-12-15T02:37:22.635Z,91.90
2022-12-15T02:39:49.374Z,92.20
2022-12-15T02:42:16.328Z,92.70
2022-12-15T02:44:49.586Z,92.50
2022-12-15T02:47:39.148Z,92.00
2022-12-15T02:50:18.966Z,92.00
2022-12-15T02:53:14.732Z,92.10
2022-12-15T02:56:08.692Z,92.10
2022-12-15T02:58:54.267Z,91.80
2022-12-15T03:01:33.662Z,91.60
2022-12-15T03:04:02.797Z,91.80
2022-12-15T03:06:29.531Z,92.00
2022-12-15T03:08:56.186Z,91.70
2022-12-15T03:11:23.083Z,92.30
2022-12-15T03:13:50.436Z,92.90
2022-12-15T03:16:17.171Z,92.50
2022-12-15T03:18:43.876Z,92.60
2022-12-15T03:21:10.689Z,93.00
2022-12-15T03:23:37.350Z,92.40
2022-12-15T03:26:04.704Z,92.40
2022-12-15T03:28:31.338Z,92.50
2022-12-15T03:30:57.981Z,92.20
2022-12-15T03:33:24.669Z,92.00
2022-12-15T03:35:51.375Z,91.60
2022-12-15T03:38:18.898Z,91.20
2022-12-15T03:40:45.562Z,91.40
2022-12-15T03:43:12.288Z,92.40
2022-12-15T03:45:39.005Z,92.40
2022-12-15T03:48:05.825Z,91.60
2022-12-15T03:50:32.510Z,91.20
2022-12-15T03:53:01.888Z,91.30
2022-12-15T03:55:29.208Z,91.40
2022-12-15T03:57:56.432Z,91.70
2022-12-15T04:00:24.628Z,92.20
2022-12-15T04:02:51.852Z,92.40
2022-12-15T04:05:28.032Z,92.40
2022-12-15T04:07:56.319Z,92.20
2022-12-15T04:10:27.406Z,92.50
2022-12-15T04:13:06.741Z,92.90
2022-12-15T04:15:34.075Z,93.20
2022-12-15T04:18:06.227Z,93.30
2022-12-15T04:20:33.365Z,93.10
2022-12-15T04:23:00.338Z,92.90
2022-12-15T04:25:46.464Z,92.40
2022-12-15T04:28:32.215Z,92.90
2022-12-15T04:31:29.893Z,93.10
2022-12-15T04:34:19.704Z,92.60
2022-12-15T04:37:07.682Z,92.40
2022-12-15T04:39:54.970Z,92.20
2022-12-15T04:42:40.242Z,91.40
2022-12-15T04:45:27.323Z,91.10
2022-12-15T04:48:12.619Z,91.00
2022-12-15T04:50:58.029Z,90.80
2022-12-15T04:53:43.604Z,91.10
2022-12-15T04:56:30.991Z,91.80
2022-12-15T04:59:16.368Z,92.00
2022-12-15T05:02:01.671Z,91.90
2022-12-15T05:04:47.625Z,92.40
2022-12-15T05:07:33.706Z,92.80
2022-12-15T05:10:19.267Z,93.10
2022-12-15T05:13:04.765Z,93.20
2022-12-15T05:15:52.184Z,93.00
2022-12-15T05:18:37.788Z,93.10
2022-12-15T05:21:23.375Z,92.80
2022-12-15T05:24:08.518Z,92.50
2022-12-15T05:26:53.875Z,91.90
2022-12-15T05:29:40.401Z,91.70
2022-12-15T05:32:08.238Z,91.30
2022-12-15T05:34:36.355Z,91.60
2022-12-15T05:37:04.919Z,91.80
2022-12-15T05:39:32.046Z,91.70
2022-12-15T05:41:58.763Z,92.10
2022-12-15T05:44:26.146Z,91.80
2022-12-15T05:46:53.516Z,91.60
2022-12-15T05:49:20.972Z,91.70
2022-12-15T05:51:48.010Z,92.50
2022-12-15T05:54:17.815Z,92.80
2022-12-15T05:56:45.577Z,93.20
2022-12-15T05:59:12.772Z,92.60
2022-12-15T06:01:39.995Z,92.50
2022-12-15T06:04:07.447Z,92.50
2022-12-15T06:06:34.117Z,92.20
2022-12-15T06:09:00.885Z,91.70
2022-12-15T06:11:27.710Z,92.10
2022-12-15T06:13:55.775Z,92.10
2022-12-15T06:16:25.376Z,92.00
2022-12-15T06:18:58.502Z,91.90
2022-12-15T06:21:37.451Z,92.10
2022-12-15T06:24:05.364Z,92.50
2022-12-15T06:26:38.002Z,92.20
2022-12-15T06:29:08.603Z,91.90
2022-12-15T06:31:36.465Z,92.20
2022-12-15T06:34:05.349Z,92.40
2022-12-15T06:36:32.072Z,91.60
2022-12-15T06:39:00.654Z,91.50
2022-12-15T06:41:30.159Z,91.90
2022-12-15T06:43:57.091Z,91.40
2022-12-15T06:46:25.963Z,91.70
2022-12-15T06:48:53.104Z,91.70
2022-12-15T06:51:20.473Z,92.30
2022-12-15T06:53:53.582Z,92.50
2022-12-15T06:56:28.916Z,92.40
2022-12-15T06:58:59.629Z,92.50
2022-12-15T07:01:27.188Z,92.50
2022-12-15T07:03:55.293Z,92.50
2022-12-15T07:06:22.701Z,92.00
2022-12-15T07:08:54.205Z,91.40
2022-12-15T07:11:22.003Z,91.40
2022-12-15T07:13:50.689Z,92.00
2022-12-15T07:16:17.881Z,92.40
2022-12-15T07:18:44.673Z,92.00
2022-12-15T07:21:11.399Z,91.70
2022-12-15T07:23:55.939Z,91.40
2022-12-15T07:26:24.324Z,91.70
2022-12-15T07:28:51.191Z,92.00
2022-12-15T07:31:18.201Z,91.90
2022-12-15T07:33:44.955Z,92.20
2022-12-15T07:36:12.025Z,92.40
2022-12-15T07:38:38.712Z,92.50
2022-12-15T07:41:07.054Z,92.60
2022-12-15T07:43:35.051Z,92.20
2022-12-15T07:46:02.431Z,91.30
2022-12-15T07:48:29.351Z,91.10
2022-12-15T07:51:07.409Z,91.60
2022-12-15T07:53:36.386Z,91.80
2022-12-15T07:56:08.129Z,92.00
2022-12-15T07:58:36.310Z,91.70
2022-12-15T08:01:05.674Z,92.00
2022-12-15T08:03:33.038Z,91.90
2022-12-15T08:06:07.479Z,91.70
2022-12-15T08:08:35.362Z,91.60
2022-12-15T08:11:07.190Z,91.60
2022-12-15T08:16:21.755Z,91.60
2022-12-15T08:18:48.800Z,91.10
2022-12-15T08:21:15.987Z,90.90
2022-12-15T08:23:42.656Z,91.00
2022-12-15T08:26:12.145Z,91.10
2022-12-15T08:28:40.440Z,90.50
2022-12-15T08:31:09.958Z,90.60
2022-12-15T08:33:37.685Z,90.80
2022-12-15T08:36:07.840Z,91.10
2022-12-15T08:38:36.304Z,90.80
2022-12-15T08:41:10.236Z,90.60
2022-12-15T08:43:41.283Z,89.60
2022-12-15T08:46:12.940Z,89.90
2022-12-15T08:48:39.716Z,90.40
2022-12-15T08:51:06.799Z,90.20
2022-12-15T08:53:33.730Z,90.40
2022-12-15T08:56:05.968Z,90.20
2022-12-15T08:58:33.502Z,89.90
2022-12-15T09:01:06.139Z,89.70
2022-12-15T09:03:34.879Z,89.70
2022-12-15T09:06:03.884Z,89.80
2022-12-15T09:08:31.094Z,89.70
2022-12-15T09:10:58.799Z,89.70
2022-12-15T09:13:26.048Z,89.70
2022-12-15T09:16:09.355Z,89.70
2022-12-15T09:18:36.873Z,89.30
2022-12-15T09:21:05.554Z,89.40
2022-12-15T09:23:33.781Z,89.60
2022-12-15T09:26:01.959Z,89.80
2022-12-15T09:28:29.685Z,89.80
2022-12-15T09:31:23.027Z,89.70
2022-12-15T09:33:52.614Z,89.60
2022-12-15T09:36:19.816Z,89.50
2022-12-15T09:38:47.142Z,89.20
2022-12-15T09:41:13.821Z,89.10
2022-12-15T09:43:58.480Z,89.00
2022-12-15T09:46:41.913Z,88.20
2022-12-15T09:49:35.766Z,88.60
2022-12-15T09:52:22.686Z,88.70
2022-12-15T09:54:49.602Z,87.90
2022-12-15T09:57:42.833Z,87.90
2022-12-15T10:00:25.362Z,88.10
2022-12-15T10:03:30.882Z,87.90
2022-12-15T10:06:21.218Z,88.30
2022-12-15T10:08:50.650Z,87.80
2022-12-15T10:11:35.744Z,87.50
2022-12-15T10:14:30.740Z,86.40
2022-12-15T10:17:23.964Z,78.20
2022-12-15T10:20:14.425Z,72.80
2022-12-15T10:22:42.090Z,67.40
2022-12-15T10:25:29.374Z,66.20
2022-12-15T10:28:21.471Z,63.10
2022-12-15T10:31:02.179Z,60.50
2022-12-15T10:33:34.807Z,58.50
2022-12-15T10:36:02.271Z,58.00
2022-12-15T10:38:37.779Z,56.70
2022-12-15T10:41:08.409Z,57.00
2022-12-15T10:43:38.145Z,56.10
2022-12-15T10:46:18.846Z,55.80
2022-12-15T10:49:07.306Z,55.30
2022-12-15T10:51:43.893Z,55.80
2022-12-15T10:54:14.002Z,56.70
2022-12-15T10:56:58.715Z,56.00
2022-12-15T10:59:28.932Z,57.50
2022-12-15T11:01:55.750Z,59.80
2022-12-15T11:04:31.417Z,62.70
2022-12-15T11:07:00.080Z,65.50
2022-12-15T11:09:29.887Z,67.70
2022-12-15T11:12:15.054Z,69.10
2022-12-15T11:14:51.133Z,70.30
2022-12-15T11:17:21.673Z,72.30
2022-12-15T11:20:05.926Z,73.20
2022-12-15T11:22:52.923Z,73.30
2022-12-15T11:25:32.153Z,74.30
2022-12-15T11:28:02.389Z,75.90
2022-12-15T11:30:34.215Z,76.60
2022-12-15T11:33:02.063Z,76.70
2022-12-15T11:35:51.074Z,77.40
2022-12-15T11:38:34.588Z,78.00
2022-12-15T11:41:30.999Z,78.20
2022-12-15T11:44:12.415Z,78.30
2022-12-15T11:47:02.238Z,78.10
2022-12-15T11:49:52.787Z,78.60
2022-12-15T11:52:40.530Z,79.00
2022-12-15T11:55:18.085Z,79.10
2022-12-15T11:58:10.057Z,79.00
2022-12-15T12:00:43.756Z,78.80
2022-12-15T12:03:28.418Z,78.90
2022-12-15T12:06:16.719Z,79.20
2022-12-15T12:09:27.809Z,80.10
2022-12-15T12:12:03.243Z,80.20
2022-12-15T12:15:06.555Z,80.40
2022-12-15T12:17:42.052Z,80.90
2022-12-15T12:20:44.285Z,81.00
2022-12-15T12:23:22.127Z,81.40
2022-12-15T12:26:28.850Z,81.70
2022-12-15T12:29:20.115Z,82.50
2022-12-15T12:32:24.818Z,82.50
2022-12-15T12:35:31.211Z,82.50
2022-12-15T12:38:05.730Z,82.60
2022-12-15T12:40:41.325Z,82.70
2022-12-15T12:43:16.353Z,83.10
2022-12-15T12:45:57.006Z,83.20
2022-12-15T12:48:33.633Z,83.80
2022-12-15T12:51:37.518Z,83.60
2022-12-15T12:54:29.633Z,84.00
2022-12-15T12:56:56.345Z,84.20
2022-12-15T12:59:29.081Z,84.20
2022-12-15T13:01:57.429Z,84.40
2022-12-15T13:04:30.223Z,83.80
2022-12-15T13:07:06.794Z,84.00
2022-12-15T13:09:44.137Z,84.50
2022-12-15T13:12:53.318Z,84.40
2022-12-15T13:15:37.815Z,84.70
2022-12-15T13:18:15.686Z,84.70
2022-12-15T13:20:44.507Z,84.80
2022-12-15T13:23:36.969Z,84.60
2022-12-15T13:26:04.527Z,84.50
2022-12-15T13:28:40.990Z,84.50
2022-12-15T13:31:24.033Z,84.90
2022-12-15T13:33:54.630Z,85.00
2022-12-15T13:36:39.600Z,84.80
2022-12-15T13:39:17.308Z,85.20
2022-12-15T13:42:23.843Z,85.60
2022-12-15T13:44:39.743Z,85.60
2022-12-15T13:47:18.461Z,85.70
2022-12-15T13:50:06.643Z,85.50
2022-12-15T13:55:37.251Z,85.50
2022-12-15T13:58:13.492Z,85.30
2022-12-15T14:00:52.329Z,85.90
2022-12-15T14:03:23.649Z,85.60
2022-12-15T14:05:56.248Z,85.40
2022-12-15T14:08:25.126Z,85.40
2022-12-15T14:10:54.373Z,85.70
2022-12-15T14:13:24.813Z,85.80
2022-12-15T14:15:58.062Z,85.80
2022-12-15T14:18:27.928Z,86.00
2022-12-15T14:20:55.087Z,85.90
2022-12-15T14:23:30.956Z,86.30
2022-12-15T14:26:06.869Z,86.50
2022-12-15T14:28:36.652Z,86.20
2022-12-15T14:31:16.469Z,86.20
2022-12-15T14:33:46.012Z,86.00
2022-12-15T14:36:23.696Z,85.90
2022-12-15T14:38:58.368Z,85.90
2022-12-15T14:41:32.692Z,85.60
2022-12-15T14:44:36.529Z,85.60
2022-12-15T14:47:06.850Z,85.80
2022-12-15T14:49:45.251Z,85.90
2022-12-15T14:52:36.642Z,85.80
2022-12-15T14:55:38.896Z,86.70
2022-12-15T14:58:27.677Z,86.30
2022-12-15T15:00:55.807Z,86.30
2022-12-15T15:03:38.105Z,86.30
2022-12-15T15:06:11.120Z,86.30
2022-12-15T15:08:51.415Z,86.90
2022-12-15T15:11:30.030Z,87.70
2022-12-15T15:13:59.757Z,87.90
2022-12-15T15:16:27.102Z,88.20
2022-12-15T15:18:55.811Z,88.20
2022-12-15T15:21:25.025Z,88.40
2022-12-15T15:23:59.263Z,88.00
2022-12-15T15:26:27.535Z,88.10
2022-12-15T15:28:54.819Z,88.10
2022-12-15T15:31:40.773Z,88.00
2022-12-15T15:34:08.787Z,88.10
2022-12-15T15:36:37.787Z,87.70
2022-12-15T15:39:13.089Z,87.90
2022-12-15T15:41:39.979Z,87.80
2022-12-15T15:44:14.112Z,88.40
2022-12-15T15:46:51.485Z,88.90
2022-12-15T15:49:21.630Z,88.80
2022-12-15T15:51:48.960Z,88.70
2022-12-15T15:54:21.050Z,88.70
2022-12-15T15:56:47.689Z,88.60
2022-12-15T15:59:21.586Z,88.60
2022-12-15T16:01:59.632Z,88.60
2022-12-15T16:04:26.795Z,89.20
2022-12-15T16:06:54.931Z,88.90
2022-12-15T16:09:27.349Z,88.60
2022-12-15T16:11:54.960Z,88.70
2022-12-15T16:14:24.857Z,88.80
2022-12-15T16:16:56.134Z,88.70
2022-12-15T16:19:23.839Z,88.60
2022-12-15T16:21:51.961Z,89.00
2022-12-15T16:24:19.606Z,89.60
2022-12-15T16:26:50.920Z,89.60
2022-12-15T16:29:20.274Z,89.70
2022-12-15T16:31:47.526Z,90.00
2022-12-15T16:34:21.619Z,89.90
2022-12-15T16:36:48.333Z,89.90
2022-12-15T16:39:32.094Z,89.70
2022-12-15T16:41:59.246Z,89.10
2022-12-15T16:44:38.290Z,89.00
2022-12-15T16:47:05.146Z,89.20
2022-12-15T16:49:39.610Z,89.80
2022-12-15T16:52:20.328Z,89.90
2022-12-15T16:54:50.004Z,89.80
2022-12-15T16:57:18.978Z,89.70
2022-12-15T16:59:49.736Z,89.60
2022-12-15T17:02:31.644Z,89.50
2022-12-15T17:04:58.560Z,90.10
2022-12-15T17:07:27.798Z,90.60
2022-12-15T17:09:55.690Z,90.40
2022-12-15T17:12:25.230Z,89.70
2022-12-15T17:14:57.601Z,89.40
2022-12-15T17:17:25.472Z,89.40
2022-12-15T17:20:27.419Z,89.30
2022-12-15T17:22:43.684Z,90.00
2022-12-15T17:25:17.409Z,90.00
2022-12-15T17:27:44.807Z,90.10
2022-12-15T17:30:15.121Z,89.80
2022-12-15T17:32:43.283Z,89.70
2022-12-15T17:35:12.080Z,89.60
2022-12-15T17:37:40.143Z,89.90
2022-12-15T17:40:27.253Z,90.50
2022-12-15T17:42:53.970Z,90.50
2022-12-15T17:45:23.719Z,90.50
2022-12-15T17:47:52.067Z,89.90
2022-12-15T17:50:19.203Z,89.90
2022-12-15T17:52:51.140Z,90.20
2022-12-15T17:55:21.430Z,90.50
2022-12-15T17:57:48.436Z,90.00
2022-12-15T18:00:43.246Z,89.70
2022-12-15T18:03:15.401Z,89.50
2022-12-15T18:05:42.402Z,89.40
2022-12-15T18:08:20.923Z,89.70
2022-12-15T18:10:50.490Z,89.60
2022-12-15T18:13:27.916Z,90.20
2022-12-15T18:15:57.121Z,90.20
2022-12-15T18:18:24.777Z,90.30
2022-12-15T18:20:55.604Z,90.40
2022-12-15T18:23:24.470Z,90.20
2022-12-15T18:25:51.536Z,90.20
2022-12-15T18:28:27.663Z,89.90
2022-12-15T18:30:56.552Z,89.50
2022-12-15T18:33:23.588Z,89.50
2022-12-15T18:35:51.699Z,89.60
2022-12-15T18:38:22.274Z,89.90
2022-12-15T18:40:53.164Z,89.70
2022-12-15T18:43:22.052Z,89.40
2022-12-15T18:45:50.248Z,89.70
2022-12-15T18:48:27.094Z,90.10
2022-12-15T18:50:56.286Z,90.10
2022-12-15T18:53:30.560Z,90.60
2022-12-15T18:56:01.399Z,90.80
2022-12-15T18:58:30.088Z,91.00
2022-12-15T19:00:59.461Z,90.70
2022-12-15T19:03:27.354Z,90.50
2022-12-15T19:05:59.225Z,90.40
2022-12-15T19:08:28.326Z,90.10
2022-12-15T19:10:58.271Z,89.60
2022-12-15T19:13:29.640Z,89.80
2022-12-15T19:15:58.576Z,89.80
2022-12-15T19:18:44.842Z,90.20
2022-12-15T19:21:43.181Z,90.40
2022-12-15T19:24:51.511Z,90.40
2022-12-15T19:27:22.987Z,90.20
2022-12-15T19:29:50.961Z,90.40
2022-12-15T19:32:17.883Z,90.30
2022-12-15T19:34:44.985Z,90.50
2022-12-15T19:37:23.803Z,90.00
2022-12-15T19:39:54.170Z,90.50
2022-12-15T19:42:28.248Z,90.30
2022-12-15T19:44:54.957Z,90.20
2022-12-15T19:47:21.944Z,90.20
2022-12-15T19:49:48.832Z,90.10
2022-12-15T19:52:17.146Z,90.30
2022-12-15T19:54:46.767Z,90.20
2022-12-15T19:57:18.181Z,90.30
2022-12-15T19:59:45.255Z,90.70
2022-12-15T20:02:20.807Z,90.90
2022-12-15T20:04:48.640Z,90.30
2022-12-15T20:07:27.175Z,90.20
2022-12-15T20:09:55.910Z,90.20
2022-12-15T20:12:25.319Z,90.50
2022-12-15T20:14:52.301Z,90.50
2022-12-15T20:17:25.021Z,90.40
2022-12-15T20:19:52.283Z,90.40
2022-12-15T20:22:26.202Z,90.30
2022-12-15T20:24:58.909Z,90.00
2022-12-15T20:27:28.469Z,90.20
2022-12-15T20:29:58.544Z,89.70
2022-12-15T20:32:32.662Z,90.00
2022-12-15T20:35:03.468Z,90.00
2022-12-15T20:37:31.434Z,90.10
2022-12-15T20:39:59.161Z,90.20
2022-12-15T20:42:27.758Z,90.20
2022-12-15T20:44:54.630Z,90.10
2022-12-15T20:47:23.906Z,90.10
2022-12-15T20:49:54.240Z,90.00
2022-12-15T20:52:27.639Z,90.10
2022-12-15T20:54:58.303Z,90.10
2022-12-15T20:57:28.596Z,90.20
2022-12-15T20:59:56.097Z,90.20
2022-12-15T21:02:28.703Z,90.00
2022-12-15T21:04:55.909Z,90.30
2022-12-15T21:07:22.762Z,90.00
2022-12-15T21:09:57.077Z,90.20
2022-12-15T21:12:27.925Z,90.80
2022-12-15T21:14:55.257Z,90.70
2022-12-15T21:17:24.072Z,89.90
2022-12-15T21:19:54.841Z,89.80
2022-12-15T21:22:27.104Z,89.70
2022-12-15T21:25:01.595Z,89.40
2022-12-15T21:27:31.650Z,88.80
2022-12-15T21:29:58.871Z,89.40
2022-12-15T21:32:26.745Z,89.80
2022-12-15T21:34:56.757Z,90.30
2022-12-15T21:37:34.811Z,90.50
2022-12-15T21:40:08.695Z,90.40
2022-12-15T21:42:37.803Z,90.10
2022-12-15T21:45:17.806Z,89.70
2022-12-15T21:48:06.510Z,89.50
2022-12-15T21:50:33.954Z,89.40
2022-12-15T21:53:01.921Z,88.90
2022-12-15T21:55:30.600Z,89.40
2022-12-15T21:58:01.440Z,88.90
2022-12-15T22:00:28.322Z,88.60
2022-12-15T22:02:55.496Z,88.70
2022-12-15T22:05:29.288Z,89.20
2022-12-15T22:07:58.001Z,89.30
2022-12-15T22:10:25.351Z,89.50
2022-12-15T22:12:59.252Z,89.10
2022-12-15T22:15:28.106Z,88.90
2022-12-15T22:17:55.901Z,88.40
2022-12-15T22:20:24.526Z,89.30
2022-12-15T22:22:51.457Z,89.90
2022-12-15T22:25:24.970Z,89.50
2022-12-15T22:27:52.447Z,89.30
2022-12-15T22:30:26.424Z,89.30
2022-12-15T22:32:55.369Z,89.50
2022-12-15T22:35:25.319Z,89.10
2022-12-15T22:37:56.093Z,89.00
2022-12-15T22:40:23.887Z,88.80
2022-12-15T22:42:54.992Z,89.50
2022-12-15T22:45:23.845Z,89.80
2022-12-15T22:47:52.009Z,89.40
2022-12-15T22:50:25.562Z,89.10
2022-12-15T22:52:52.675Z,88.70
2022-12-15T22:55:24.088Z,89.00
2022-12-15T22:57:59.333Z,89.00
2022-12-15T23:00:26.206Z,88.70
2022-12-15T23:02:53.019Z,88.30
2022-12-15T23:05:20.403Z,88.10
2022-12-15T23:07:47.200Z,88.50
2022-12-15T23:10:34.884Z,88.90
2022-12-15T23:13:01.612Z,89.00
2022-12-15T23:15:47.415Z,88.50
2022-12-15T23:18:14.097Z,88.10
2022-12-15T23:20:41.612Z,88.30
2022-12-15T23:23:09.730Z,88.90
2022-12-15T23:25:36.421Z,88.30
2022-12-15T23:28:03.336Z,88.10
2022-12-15T23:30:30.014Z,88.10
2022-12-15T23:32:56.669Z,88.00
2022-12-15T23:35:23.475Z,87.00
2022-12-15T23:37:50.123Z,87.10
2022-12-15T23:40:21.943Z,87.00
2022-12-15T23:42:52.177Z,87.10
2022-12-15T23:45:19.235Z,87.40
2022-12-15T23:47:45.944Z,87.90
2022-12-15T23:50:12.957Z,87.50
2022-12-15T23:52:39.623Z,87.80
2022-12-15T23:55:10.064Z,87.30
2022-12-15T23:57:38.557Z,87.10
